Daihatsumaru — JD2764 — position and weather

sailwx.info

Track history (hours):
 
Tides and Currents Weather Stations Pressure Air Temp Water Temp Dewpoint Dewpoint Depression Visibility Wind Speed Wind Dir Waves Ship Positions

Daihatsumaru

Last reported at 2014-Jul-22 04:13 UTC. Time now 2014-Jul-22 09:23 UTC.
Position N 34°36' E 134°54'.

Length 106 m; draft 4.5 m.

Type: Cargo ship. MMSI: 431000701.

Date/timePositionNaut miles runAvg speedWind from/ knotsBaromVisibWave heightAir tempDewpointWater temp
2014-Jul-22 04:13N 34°36' E 134°54'913.0
2014-Jul-22 03:33N 34°36' E 135°04'1413.9
2014-Jul-22 02:33N 34°39' E 135°20'3 2.7
2014-Jul-22 01:27N 34°41' E 135°23'0 0.0
2014-Jul-22 00:33N 34°41' E 135°23'0 0.0
2014-Jul-21 23:09N 34°41' E 135°23'0 0.0
2014-Jul-21 21:33N 34°41' E 135°23'0 0.0
2014-Jul-21 20:33N 34°41' E 135°23'0 0.0
2014-Jul-21 20:15N 34°41' E 135°23'0 0.0
2014-Jul-21 19:33N 34°41' E 135°23'0 0.0
2014-Jul-21 18:33N 34°41' E 135°23'0 0.0
2014-Jul-21 17:33N 34°41' E 135°23'0 0.0
2014-Jul-21 16:33N 34°41' E 135°23'0 0.0
2014-Jul-21 15:33N 34°41' E 135°23'0 0.0
2014-Jul-21 14:33N 34°41' E 135°23'0 0.0
2014-Jul-21 13:33N 34°41' E 135°23'0 0.0
2014-Jul-21 12:33N 34°41' E 135°23'0 0.0
2014-Jul-21 11:33N 34°41' E 135°23'0 0.0
2014-Jul-21 09:15N 34°41' E 135°23'0 0.0
2014-Jul-21 08:03N 34°41' E 135°23'0 0.0
2014-Jul-21 02:15N 34°41' E 135°23'0 0.0
2014-Jul-21 01:33N 34°41' E 135°23'0 0.0
2014-Jul-21 00:27N 34°41' E 135°23'0 0.0
2014-Jul-20 15:33N 34°41' E 135°23'0 0.0
2014-Jul-20 14:33N 34°41' E 135°23'0 0.0
2014-Jul-20 13:33N 34°41' E 135°23'0 0.0
2014-Jul-20 12:03N 34°41' E 135°23'0 0.0
2014-Jul-20 11:09N 34°41' E 135°23'0 0.0
2014-Jul-20 09:27N 34°41' E 135°23'0 0.0
2014-Jul-20 08:27N 34°41' E 135°23'0 0.0
2014-Jul-20 07:21N 34°41' E 135°23'0 0.0
2014-Jul-20 05:15N 34°41' E 135°23'0 0.0
2014-Jul-19 23:33N 34°41' E 135°23'0 0.0
2014-Jul-19 22:27N 34°41' E 135°23'3 3.1
2014-Jul-19 21:30N 34°40' E 135°20'0 0.0
2014-Jul-19 20:30N 34°40' E 135°20'0 0.4
2014-Jul-19 19:33N 34°39' E 135°20'1413.6
2014-Jul-19 18:33N 34°35' E 135°05'1412.3
2014-Jul-19 17:27N 34°33' E 134°49'4 0.1
2014-Jul-18 05:14N 34°35' E 134°53'1015.0
2014-Jul-18 04:33N 34°36' E 135°05'1414.3
2014-Jul-18 03:33N 34°40' E 135°22'2 0.9
2014-Jul-18 01:30N 34°41' E 135°23'0 0.0
2014-Jul-17 23:18N 34°41' E 135°23'2 3.0
2014-Jul-17 22:33N 34°40' E 135°21'0 0.2
2014-Jul-17 20:29N 34°40' E 135°21'1010.7
2014-Jul-17 19:33N 34°35' E 135°10'1414.2
2014-Jul-17 18:33N 34°35' E 134°53'8 0.2
2014-Jul-16 04:33N 34°37' E 135°02'1413.7
2014-Jul-16 03:33N 34°39' E 135°19'5 4.6
2014-Jul-16 02:32N 34°41' E 135°23'0 0.0
2014-Jul-16 01:20N 34°41' E 135°23'0 0.1
2014-Jul-16 00:32N 34°41' E 135°23'0 0.0
2014-Jul-15 23:32N 34°41' E 135°23'2 2.2
2014-Jul-15 22:34N 34°40' E 135°21'1 0.5
2014-Jul-15 21:31N 34°40' E 135°21'0 0.0
2014-Jul-15 20:31N 34°40' E 135°21'0 0.0
2014-Jul-15 19:33N 34°40' E 135°21'1312.6
2014-Jul-15 18:33N 34°35' E 135°06'1614.8
2014-Jul-15 17:30N 34°32' E 134°48'5 0.1
2014-Jul-14 04:13N 34°35' E 134°52'812.6
2014-Jul-14 03:33N 34°37' E 135°02'1414.2
2014-Jul-14 02:33N 34°39' E 135°19'4 4.3
2014-Jul-14 01:32N 34°41' E 135°23'0 0.0
2014-Jul-14 00:32N 34°41' E 135°23'0 0.0
2014-Jul-13 23:08N 34°41' E 135°23'2 4.0
2014-Jul-13 22:33N 34°40' E 135°21'0 0.3
2014-Jul-13 21:31N 34°40' E 135°21'0 0.0
2014-Jul-13 20:31N 34°40' E 135°21'5 5.2
2014-Jul-13 19:33N 34°37' E 135°16'1414.0
2014-Jul-13 18:33N 34°37' E 134°59'2 0.1
2014-Jul-12 05:20N 34°37' E 135°01'912.0
2014-Jul-12 04:34N 34°36' E 135°12'  
Track history (hours):
 
Tides and Currents Weather Stations Pressure Air Temp Water Temp Dewpoint Dewpoint Depression Visibility Wind Speed Wind Dir Waves Ship Positions

Daihatsumaru

Last reported at 2014-Jul-22 04:13 UTC. Time now 2014-Jul-22 09:23 UTC.
Position N 34°36' E 134°54'.

Length 106 m; draft 4.5 m.

Type: Cargo ship. MMSI: 431000701.

Date/timePositionNaut miles runAvg speedWind from/ knotsBaromVisibWave heightAir tempDewpointWater temp
2014-Jul-22 04:13N 34°36' E 134°54'913.0
2014-Jul-22 03:33N 34°36' E 135°04'1413.9
2014-Jul-22 02:33N 34°39' E 135°20'3 2.7
2014-Jul-22 01:27N 34°41' E 135°23'0 0.0
2014-Jul-22 00:33N 34°41' E 135°23'0 0.0
2014-Jul-21 23:09N 34°41' E 135°23'0 0.0
2014-Jul-21 21:33N 34°41' E 135°23'0 0.0
2014-Jul-21 20:33N 34°41' E 135°23'0 0.0
2014-Jul-21 20:15N 34°41' E 135°23'0 0.0
2014-Jul-21 19:33N 34°41' E 135°23'0 0.0
2014-Jul-21 18:33N 34°41' E 135°23'0 0.0
2014-Jul-21 17:33N 34°41' E 135°23'0 0.0
2014-Jul-21 16:33N 34°41' E 135°23'0 0.0
2014-Jul-21 15:33N 34°41' E 135°23'0 0.0
2014-Jul-21 14:33N 34°41' E 135°23'0 0.0
2014-Jul-21 13:33N 34°41' E 135°23'0 0.0
2014-Jul-21 12:33N 34°41' E 135°23'0 0.0
2014-Jul-21 11:33N 34°41' E 135°23'0 0.0
2014-Jul-21 09:15N 34°41' E 135°23'0 0.0
2014-Jul-21 08:03N 34°41' E 135°23'0 0.0
2014-Jul-21 02:15N 34°41' E 135°23'0 0.0
2014-Jul-21 01:33N 34°41' E 135°23'0 0.0
2014-Jul-21 00:27N 34°41' E 135°23'0 0.0
2014-Jul-20 15:33N 34°41' E 135°23'0 0.0
2014-Jul-20 14:33N 34°41' E 135°23'0 0.0
2014-Jul-20 13:33N 34°41' E 135°23'0 0.0
2014-Jul-20 12:03N 34°41' E 135°23'0 0.0
2014-Jul-20 11:09N 34°41' E 135°23'0 0.0
2014-Jul-20 09:27N 34°41' E 135°23'0 0.0
2014-Jul-20 08:27N 34°41' E 135°23'0 0.0
2014-Jul-20 07:21N 34°41' E 135°23'0 0.0
2014-Jul-20 05:15N 34°41' E 135°23'0 0.0
2014-Jul-19 23:33N 34°41' E 135°23'0 0.0
2014-Jul-19 22:27N 34°41' E 135°23'3 3.1
2014-Jul-19 21:30N 34°40' E 135°20'0 0.0
2014-Jul-19 20:30N 34°40' E 135°20'0 0.4
2014-Jul-19 19:33N 34°39' E 135°20'1413.6
2014-Jul-19 18:33N 34°35' E 135°05'1412.3
2014-Jul-19 17:27N 34°33' E 134°49'4 0.1
2014-Jul-18 05:14N 34°35' E 134°53'1015.0
2014-Jul-18 04:33N 34°36' E 135°05'1414.3
2014-Jul-18 03:33N 34°40' E 135°22'2 0.9
2014-Jul-18 01:30N 34°41' E 135°23'0 0.0
2014-Jul-17 23:18N 34°41' E 135°23'2 3.0
2014-Jul-17 22:33N 34°40' E 135°21'0 0.2
2014-Jul-17 20:29N 34°40' E 135°21'1010.7
2014-Jul-17 19:33N 34°35' E 135°10'1414.2
2014-Jul-17 18:33N 34°35' E 134°53'8 0.2
2014-Jul-16 04:33N 34°37' E 135°02'1413.7
2014-Jul-16 03:33N 34°39' E 135°19'5 4.6
2014-Jul-16 02:32N 34°41' E 135°23'0 0.0
2014-Jul-16 01:20N 34°41' E 135°23'0 0.1
2014-Jul-16 00:32N 34°41' E 135°23'0 0.0
2014-Jul-15 23:32N 34°41' E 135°23'2 2.2
2014-Jul-15 22:34N 34°40' E 135°21'1 0.5
2014-Jul-15 21:31N 34°40' E 135°21'0 0.0
2014-Jul-15 20:31N 34°40' E 135°21'0 0.0
2014-Jul-15 19:33N 34°40' E 135°21'1312.6
2014-Jul-15 18:33N 34°35' E 135°06'1614.8
2014-Jul-15 17:30N 34°32' E 134°48'5 0.1
2014-Jul-14 04:13N 34°35' E 134°52'812.6
2014-Jul-14 03:33N 34°37' E 135°02'1414.2
2014-Jul-14 02:33N 34°39' E 135°19'4 4.3
2014-Jul-14 01:32N 34°41' E 135°23'0 0.0
2014-Jul-14 00:32N 34°41' E 135°23'0 0.0
2014-Jul-13 23:08N 34°41' E 135°23'2 4.0
2014-Jul-13 22:33N 34°40' E 135°21'0 0.3
2014-Jul-13 21:31N 34°40' E 135°21'0 0.0
2014-Jul-13 20:31N 34°40' E 135°21'5 5.2
2014-Jul-13 19:33N 34°37' E 135°16'1414.0
2014-Jul-13 18:33N 34°37' E 134°59'2 0.1
2014-Jul-12 05:20N 34°37' E 135°01'912.0
2014-Jul-12 04:34N 34°36' E 135°12'  

Dump ship's entire track history